Time;durP1;ratioP1;P1;durP2;ratioP2;P2;SDS_P1;SDS_P2;PMS_P1;PMS_P2;Temp;Humidity;BMP_temperature;BMP_pressure;BME280_temperature;BME280_humidity;BME280_pressure;Samples;Min_cycle;Max_cycle;Signal;HPM_P1;HPM_P2
2023/10/31 00:01:44;;;;;;;1.20;0.70;;;11.30;99.90;;;;;;5087340;28;20641;-78
2023/10/31 00:04:11;;;;;;;0.60;0.40;;;11.30;99.90;;;;;;5091184;28;21189;-77
2023/10/31 00:06:38;;;;;;;0.50;0.50;;;11.20;99.90;;;;;;5085063;28;21318;-78
2023/10/31 00:09:05;;;;;;;0.70;0.50;;;11.30;99.90;;;;;;5089614;28;20625;-78
2023/10/31 00:11:32;;;;;;;0.50;0.50;;;11.20;99.90;;;;;;5089470;28;20656;-78
2023/10/31 00:14:00;;;;;;;0.77;0.77;;;11.30;99.90;;;;;;5089235;28;21152;-78
2023/10/31 00:16:27;;;;;;;3.70;0.60;;;11.40;99.90;;;;;;5092886;28;20724;-78
2023/10/31 00:18:54;;;;;;;0.50;0.40;;;11.30;99.90;;;;;;5088271;28;20621;-78
2023/10/31 00:21:21;;;;;;;0.50;0.50;;;11.30;99.90;;;;;;5088156;28;20635;-78
2023/10/31 00:23:49;;;;;;;0.30;0.30;;;11.30;99.90;;;;;;5092921;28;21354;-77
2023/10/31 00:26:16;;;;;;;0.70;0.50;;;11.20;99.90;;;;;;5087537;28;21266;-77
2023/10/31 00:28:43;;;;;;;0.60;0.40;;;11.20;99.90;;;;;;5099096;28;20689;-78
2023/10/31 00:31:11;;;;;;;1.80;0.50;;;11.10;99.90;;;;;;5088913;28;20621;-78
2023/10/31 00:33:38;;;;;;;0.40;0.30;;;11.00;99.90;;;;;;5080750;28;20624;-78
2023/10/31 00:36:05;;;;;;;0.50;0.30;;;11.00;99.90;;;;;;5086710;28;20728;-78
2023/10/31 00:38:32;;;;;;;0.47;0.47;;;11.00;99.90;;;;;;5086363;28;20629;-78
2023/10/31 00:40:59;;;;;;;0.30;0.20;;;11.00;99.90;;;;;;5091656;28;20740;-77
2023/10/31 00:43:26;;;;;;;0.30;0.20;;;11.00;99.90;;;;;;5093612;28;20643;-78
2023/10/31 00:45:53;;;;;;;0.50;0.40;;;11.00;99.90;;;;;;5086706;28;20668;-78
2023/10/31 00:48:22;;;;;;;0.50;0.30;;;10.90;99.90;;;;;;5085366;28;20644;-78
2023/10/31 00:50:48;;;;;;;0.40;0.30;;;11.00;99.90;;;;;;5080899;28;20629;-77
2023/10/31 00:53:16;;;;;;;0.30;0.20;;;11.00;99.90;;;;;;5088427;28;20627;-78
2023/10/31 00:55:44;;;;;;;0.50;0.40;;;10.90;99.90;;;;;;5088756;28;21036;-78
2023/10/31 00:58:10;;;;;;;0.80;0.50;;;10.90;99.90;;;;;;5095153;28;20624;-78
2023/10/31 01:00:38;;;;;;;1.37;0.43;;;10.80;99.90;;;;;;5086105;28;20658;-78
2023/10/31 01:03:04;;;;;;;0.70;0.40;;;10.80;99.90;;;;;;5087308;28;20621;-78
2023/10/31 01:05:33;;;;;;;0.30;0.30;;;10.70;99.90;;;;;;5092733;28;20951;-78
2023/10/31 01:07:59;;;;;;;0.50;0.40;;;10.60;99.90;;;;;;5090132;28;21068;-78
2023/10/31 01:10:26;;;;;;;0.63;0.60;;;10.50;99.90;;;;;;5086339;28;20629;-78
2023/10/31 01:12:53;;;;;;;0.40;0.40;;;10.50;99.90;;;;;;5088496;28;20640;-78
2023/10/31 01:15:20;;;;;;;0.70;0.60;;;10.50;99.90;;;;;;5086887;28;20621;-78
2023/10/31 01:17:47;;;;;;;0.43;0.40;;;10.30;99.90;;;;;;5093288;28;20662;-78
2023/10/31 01:20:14;;;;;;;0.40;0.40;;;10.20;99.90;;;;;;5089176;28;20633;-77
2023/10/31 01:22:42;;;;;;;0.80;0.80;;;10.20;99.90;;;;;;5088740;28;20632;-77
2023/10/31 01:25:10;;;;;;;0.40;0.40;;;10.20;99.90;;;;;;5092581;28;20617;-78
2023/10/31 01:27:37;;;;;;;0.30;0.27;;;10.10;99.90;;;;;;5084784;28;20668;-77
2023/10/31 01:30:04;;;;;;;0.70;0.50;;;10.00;99.90;;;;;;5086610;28;20627;-77
2023/10/31 01:32:31;;;;;;;0.50;0.40;;;9.90;99.90;;;;;;5091495;28;20733;-77
2023/10/31 01:34:58;;;;;;;0.80;0.47;;;9.90;99.90;;;;;;5082886;28;20621;-77
2023/10/31 01:37:25;;;;;;;0.30;0.23;;;9.80;99.90;;;;;;5085260;28;20629;-77
2023/10/31 01:39:53;;;;;;;0.37;0.37;;;9.80;99.90;;;;;;5085625;28;20629;-76
2023/10/31 01:42:20;;;;;;;0.53;0.43;;;9.80;99.90;;;;;;5086808;28;20629;-76
2023/10/31 01:44:46;;;;;;;0.77;0.57;;;9.80;99.90;;;;;;5101824;28;21062;-76
2023/10/31 01:47:13;;;;;;;0.50;0.30;;;9.70;99.90;;;;;;5087806;28;20878;-76
2023/10/31 01:49:40;;;;;;;1.43;0.57;;;9.70;99.90;;;;;;5089833;28;20714;-77
2023/10/31 01:52:07;;;;;;;0.90;0.90;;;9.70;99.90;;;;;;5089614;28;21220;-76
2023/10/31 01:54:35;;;;;;;0.50;0.40;;;9.70;99.90;;;;;;5094687;28;20614;-76
2023/10/31 01:57:05;;;;;;;0.63;0.63;;;9.70;99.90;;;;;;5086699;28;20633;-76
2023/10/31 01:59:32;;;;;;;0.60;0.60;;;9.80;99.90;;;;;;5087217;28;20712;-76
2023/10/31 02:02:01;;;;;;;0.40;0.40;;;9.90;99.90;;;;;;5079779;28;20768;-76
2023/10/31 02:04:28;;;;;;;0.60;0.40;;;9.80;99.90;;;;;;5086086;28;20620;-77
2023/10/31 02:06:55;;;;;;;1.33;0.33;;;9.80;99.90;;;;;;5087081;28;20661;-77
2023/10/31 02:09:24;;;;;;;0.40;0.40;;;9.90;99.90;;;;;;5087762;28;20633;-77
2023/10/31 02:11:52;;;;;;;0.40;0.33;;;9.90;99.90;;;;;;5089017;28;20644;-76
2023/10/31 02:14:23;;;;;;;0.40;0.40;;;9.90;99.90;;;;;;5087585;28;20690;-76
2023/10/31 02:16:52;;;;;;;0.40;0.40;;;9.80;99.90;;;;;;5084608;28;20632;-76
2023/10/31 02:19:21;;;;;;;0.77;0.63;;;9.90;99.90;;;;;;5085698;28;21045;-76
2023/10/31 02:21:50;;;;;;;0.80;0.40;;;9.90;99.90;;;;;;5089027;28;21061;-76
2023/10/31 02:24:18;;;;;;;0.43;0.43;;;9.90;99.90;;;;;;5085626;28;20988;-76
2023/10/31 02:26:46;;;;;;;0.80;0.50;;;9.80;99.90;;;;;;5088262;28;20660;-76
2023/10/31 02:29:13;;;;;;;0.40;0.30;;;9.90;99.90;;;;;;5094789;28;20660;-76
2023/10/31 02:31:41;;;;;;;0.40;0.33;;;9.90;99.90;;;;;;5093587;28;20635;-76
2023/10/31 02:34:09;;;;;;;0.50;0.40;;;9.90;99.90;;;;;;5095542;28;20632;-76
2023/10/31 02:36:37;;;;;;;0.60;0.60;;;9.90;99.90;;;;;;5082093;28;21113;-76
2023/10/31 02:39:07;;;;;;;0.70;0.70;;;9.90;99.90;;;;;;5100879;28;20624;-76
2023/10/31 02:41:35;;;;;;;0.80;0.80;;;9.80;99.90;;;;;;5089077;28;20680;-76
2023/10/31 02:44:02;;;;;;;0.50;0.50;;;9.80;99.90;;;;;;5093210;28;20678;-76
2023/10/31 02:46:31;;;;;;;0.60;0.57;;;9.80;99.90;;;;;;5095509;28;20673;-76
2023/10/31 02:48:58;;;;;;;0.70;0.70;;;9.70;99.90;;;;;;5094469;28;20672;-76
2023/10/31 02:51:27;;;;;;;0.60;0.60;;;9.70;99.90;;;;;;5091568;28;20637;-76
2023/10/31 02:53:54;;;;;;;0.53;0.53;;;9.70;99.90;;;;;;5089048;28;20639;-76
2023/10/31 02:56:25;;;;;;;0.80;0.50;;;9.80;99.90;;;;;;5088390;28;20719;-76
2023/10/31 02:58:52;;;;;;;0.70;0.60;;;9.90;99.90;;;;;;5093163;28;20656;-76
2023/10/31 03:01:19;;;;;;;0.50;0.50;;;9.80;99.90;;;;;;5091473;28;21016;-76
2023/10/31 03:03:46;;;;;;;0.47;0.47;;;9.90;99.90;;;;;;5087954;28;21230;-76
2023/10/31 03:06:13;;;;;;;1.60;1.27;;;9.90;99.90;;;;;;5091362;28;21068;-76
2023/10/31 03:08:40;;;;;;;0.50;0.50;;;9.90;99.90;;;;;;5092002;28;20695;-76
2023/10/31 03:11:07;;;;;;;0.60;0.60;;;9.90;99.90;;;;;;5092092;28;20612;-76
2023/10/31 03:13:35;;;;;;;0.60;0.60;;;9.90;99.90;;;;;;5091428;28;20625;-76
2023/10/31 03:16:02;;;;;;;0.80;0.60;;;9.90;99.90;;;;;;5087049;28;21211;-76
2023/10/31 03:18:29;;;;;;;0.63;0.63;;;9.90;99.90;;;;;;5092898;28;21097;-76
2023/10/31 03:20:55;;;;;;;1.20;0.63;;;9.90;99.90;;;;;;5089404;28;20744;-76
2023/10/31 03:23:22;;;;;;;0.50;0.50;;;9.90;99.90;;;;;;5089812;28;20625;-75
2023/10/31 03:25:49;;;;;;;0.70;0.53;;;9.90;99.90;;;;;;5087870;28;20631;-76
2023/10/31 03:28:22;;;;;;;0.63;0.40;;;9.90;99.90;;;;;;5089372;28;20771;-75
2023/10/31 03:30:51;;;;;;;0.40;0.40;;;9.90;99.90;;;;;;5103167;28;20719;-75
2023/10/31 03:33:18;;;;;;;0.60;0.60;;;9.90;99.90;;;;;;5086582;28;20625;-75
2023/10/31 03:35:45;;;;;;;1.33;0.70;;;9.80;99.90;;;;;;5089539;28;20627;-76
2023/10/31 03:38:12;;;;;;;0.50;0.40;;;9.70;99.90;;;;;;5100516;28;21235;-75
2023/10/31 03:40:39;;;;;;;0.73;0.73;;;9.60;99.90;;;;;;5086374;28;20651;-75
2023/10/31 03:43:06;;;;;;;0.60;0.50;;;9.60;99.90;;;;;;5089446;28;20628;-76
2023/10/31 03:45:33;;;;;;;0.50;0.50;;;9.70;99.90;;;;;;5094654;28;21245;-76
2023/10/31 03:48:03;;;;;;;0.40;0.40;;;9.60;99.90;;;;;;5103948;28;20671;-75
2023/10/31 03:50:30;;;;;;;1.03;0.70;;;9.60;99.90;;;;;;5090433;28;20632;-75
2023/10/31 03:52:58;;;;;;;0.63;0.63;;;9.60;99.90;;;;;;5091974;28;20743;-75
2023/10/31 03:55:26;;;;;;;0.60;0.40;;;9.60;99.90;;;;;;5088771;28;20633;-75
2023/10/31 03:57:55;;;;;;;0.40;0.40;;;9.60;99.90;;;;;;5087813;28;20629;-75
2023/10/31 04:00:23;;;;;;;0.60;0.50;;;9.60;99.90;;;;;;5088145;28;20621;-75
2023/10/31 04:02:51;;;;;;;1.80;0.70;;;9.50;99.90;;;;;;5085779;28;20627;-75
2023/10/31 04:05:20;;;;;;;0.60;0.57;;;9.50;99.90;;;;;;5088647;28;20751;-75
2023/10/31 04:07:48;;;;;;;1.30;0.30;;;9.60;99.90;;;;;;5086253;28;20649;-75
2023/10/31 04:10:16;;;;;;;0.40;0.33;;;9.60;99.90;;;;;;5086095;28;20633;-75
2023/10/31 04:12:44;;;;;;;0.83;0.50;;;9.60;99.90;;;;;;5090650;28;20628;-75
2023/10/31 04:15:12;;;;;;;0.50;0.40;;;9.70;99.90;;;;;;5097485;28;20639;-75
2023/10/31 04:17:40;;;;;;;0.60;0.60;;;9.70;99.90;;;;;;5089096;28;21755;-75
2023/10/31 04:20:09;;;;;;;0.80;0.80;;;9.70;99.90;;;;;;5089121;28;21212;-76
2023/10/31 04:22:38;;;;;;;0.40;0.33;;;9.60;99.90;;;;;;5088368;28;20628;-76
2023/10/31 04:25:06;;;;;;;0.77;0.57;;;9.60;99.90;;;;;;5088362;28;21058;-76
2023/10/31 04:27:34;;;;;;;1.77;0.63;;;9.60;99.90;;;;;;5088937;28;21115;-76
2023/10/31 04:30:01;;;;;;;0.40;0.30;;;9.60;99.90;;;;;;5090631;28;20613;-75
2023/10/31 04:32:27;;;;;;;0.43;0.40;;;9.70;99.90;;;;;;5089021;28;20632;-75
2023/10/31 04:34:54;;;;;;;0.70;0.60;;;9.70;99.90;;;;;;5088229;28;20739;-75
2023/10/31 04:37:21;;;;;;;0.50;0.40;;;9.60;99.90;;;;;;5085720;28;21178;-75
2023/10/31 04:39:49;;;;;;;0.43;0.43;;;9.60;99.90;;;;;;5088354;28;20633;-75
2023/10/31 04:42:17;;;;;;;1.07;0.87;;;9.60;99.90;;;;;;5086798;28;20637;-75
2023/10/31 04:44:44;;;;;;;0.40;0.40;;;9.60;99.90;;;;;;5090111;28;20664;-75
2023/10/31 04:47:11;;;;;;;0.40;0.40;;;9.60;99.90;;;;;;5096044;28;20660;-75
2023/10/31 04:49:37;;;;;;;1.63;0.87;;;9.60;99.90;;;;;;5081763;28;20636;-75
2023/10/31 04:52:05;;;;;;;0.43;0.43;;;9.60;99.90;;;;;;5086052;28;21173;-75
2023/10/31 04:54:32;;;;;;;0.50;0.33;;;9.50;99.90;;;;;;5092432;28;20760;-75
2023/10/31 04:57:00;;;;;;;0.30;0.30;;;9.50;99.90;;;;;;5090324;28;20625;-75
2023/10/31 04:59:27;;;;;;;3.53;1.27;;;9.50;99.90;;;;;;5086325;28;20639;-75
2023/10/31 05:01:55;;;;;;;0.60;0.50;;;9.50;99.90;;;;;;5086307;28;21381;-76
2023/10/31 05:04:21;;;;;;;0.53;0.40;;;9.60;99.90;;;;;;5087608;28;20626;-75
2023/10/31 05:06:48;;;;;;;0.70;0.70;;;9.50;99.90;;;;;;5085339;28;21339;-75
2023/10/31 05:09:15;;;;;;;0.83;0.83;;;9.40;99.90;;;;;;5096090;28;20643;-76
2023/10/31 05:11:42;;;;;;;1.13;0.70;;;9.40;99.90;;;;;;5092486;28;20675;-76
2023/10/31 05:14:11;;;;;;;0.70;0.53;;;9.30;99.90;;;;;;5096010;28;20640;-76
2023/10/31 05:16:41;;;;;;;0.60;0.50;;;9.30;99.90;;;;;;5087042;28;20629;-76
2023/10/31 05:19:08;;;;;;;3.13;0.90;;;9.30;99.90;;;;;;5085455;28;20621;-75
2023/10/31 05:21:35;;;;;;;0.80;0.80;;;9.20;99.90;;;;;;5088004;28;20622;-75
2023/10/31 05:24:02;;;;;;;0.60;0.60;;;9.20;99.90;;;;;;5087392;28;20629;-75
2023/10/31 05:26:29;;;;;;;0.83;0.70;;;9.10;99.90;;;;;;5089127;28;20650;-76
2023/10/31 05:28:56;;;;;;;1.23;0.97;;;9.10;99.90;;;;;;5085518;28;21320;-75
2023/10/31 05:31:25;;;;;;;0.50;0.33;;;9.20;99.90;;;;;;5095610;28;20648;-76
2023/10/31 05:33:52;;;;;;;3.93;0.90;;;9.30;99.90;;;;;;5093176;28;20646;-76
2023/10/31 05:36:20;;;;;;;0.60;0.60;;;9.20;99.90;;;;;;5091938;28;20636;-76
2023/10/31 05:38:46;;;;;;;0.80;0.60;;;9.20;99.90;;;;;;5084873;28;20636;-76
2023/10/31 05:41:13;;;;;;;0.60;0.60;;;9.20;99.90;;;;;;5091304;28;20626;-75
2023/10/31 05:43:40;;;;;;;1.27;0.70;;;9.20;99.90;;;;;;5083736;28;20636;-75
2023/10/31 05:46:10;;;;;;;0.60;0.60;;;9.20;99.90;;;;;;5089620;28;20622;-75
2023/10/31 05:48:38;;;;;;;0.40;0.33;;;9.20;99.90;;;;;;5077137;28;20723;-76
2023/10/31 05:51:05;;;;;;;0.70;0.70;;;9.20;99.90;;;;;;5085455;28;20621;-76
2023/10/31 05:53:34;;;;;;;1.00;0.77;;;9.30;99.90;;;;;;5087988;28;20632;-76
2023/10/31 05:56:01;;;;;;;0.40;0.40;;;9.30;99.90;;;;;;5085675;28;20636;-76
2023/10/31 05:58:27;;;;;;;0.63;0.60;;;9.30;99.90;;;;;;5085266;28;20624;-76
2023/10/31 06:00:54;;;;;;;0.77;0.73;;;9.30;99.90;;;;;;5087348;28;20633;-75
2023/10/31 06:03:21;;;;;;;1.80;0.50;;;9.10;99.90;;;;;;5088855;28;20628;-76
2023/10/31 06:05:49;;;;;;;0.40;0.40;;;9.10;99.90;;;;;;5091682;28;20623;-76
2023/10/31 06:08:16;;;;;;;0.80;0.50;;;9.10;99.90;;;;;;5089242;28;20667;-76
2023/10/31 06:10:42;;;;;;;0.97;0.60;;;9.00;99.90;;;;;;5083152;28;21216;-77
2023/10/31 06:13:09;;;;;;;0.40;0.40;;;9.00;99.90;;;;;;5096456;28;20620;-79
2023/10/31 06:15:36;;;;;;;0.50;0.40;;;9.10;99.90;;;;;;5091458;28;20608;-77
2023/10/31 06:18:03;;;;;;;0.50;0.50;;;9.00;99.90;;;;;;5089603;28;21144;-77
2023/10/31 06:20:31;;;;;;;0.70;0.60;;;9.10;99.90;;;;;;5090880;28;20619;-75
2023/10/31 06:22:59;;;;;;;1.00;0.90;;;9.20;99.90;;;;;;5090436;28;20629;-74
2023/10/31 06:25:26;;;;;;;1.77;0.57;;;9.10;99.90;;;;;;5090296;28;20631;-75
2023/10/31 06:27:53;;;;;;;0.60;0.60;;;9.10;99.90;;;;;;5080694;28;20663;-74
2023/10/31 06:30:19;;;;;;;0.70;0.70;;;9.10;99.90;;;;;;5089606;28;20930;-74
2023/10/31 06:32:46;;;;;;;0.50;0.50;;;9.20;99.90;;;;;;5090513;28;21182;-76
2023/10/31 06:35:13;;;;;;;0.73;0.60;;;9.10;99.90;;;;;;5089192;28;21215;-74
2023/10/31 06:37:40;;;;;;;1.60;1.00;;;9.00;99.90;;;;;;5088999;28;20736;-75
2023/10/31 06:40:10;;;;;;;0.60;0.60;;;9.10;99.90;;;;;;5088988;28;20628;-74
2023/10/31 06:42:36;;;;;;;0.60;0.60;;;9.10;99.90;;;;;;5089953;28;20619;-74
2023/10/31 06:45:03;;;;;;;0.60;0.53;;;9.10;99.90;;;;;;5090946;28;20621;-76
2023/10/31 06:47:31;;;;;;;0.70;0.70;;;9.10;99.90;;;;;;5088703;28;21216;-74
2023/10/31 06:49:58;;;;;;;0.90;0.80;;;9.10;99.90;;;;;;5089462;28;20721;-75
2023/10/31 06:52:25;;;;;;;0.87;0.63;;;9.20;99.90;;;;;;5089154;28;20720;-75
2023/10/31 06:54:52;;;;;;;0.90;0.80;;;9.20;99.90;;;;;;5096793;28;20706;-74
2023/10/31 06:57:20;;;;;;;1.60;0.90;;;9.30;99.90;;;;;;5091672;28;20623;-75
2023/10/31 06:59:47;;;;;;;0.80;0.60;;;9.30;99.90;;;;;;5097234;28;20628;-75
2023/10/31 07:02:13;;;;;;;0.63;0.60;;;9.20;99.90;;;;;;5093183;28;20613;-73
2023/10/31 07:04:40;;;;;;;0.77;0.73;;;9.30;99.90;;;;;;5083359;28;20625;-73
2023/10/31 07:07:07;;;;;;;2.17;1.13;;;9.40;99.90;;;;;;5088516;28;20625;-73
2023/10/31 07:10:01;;;;;;;1.40;1.10;;;9.50;99.90;;;;;;5081741;28;21185;-73
2023/10/31 07:12:30;;;;;;;0.80;0.80;;;9.50;99.90;;;;;;5087845;28;20645;-73
2023/10/31 07:14:59;;;;;;;0.70;0.70;;;9.60;99.90;;;;;;5090867;28;20639;-72
2023/10/31 07:17:26;;;;;;;1.50;1.30;;;9.60;99.90;;;;;;5087145;28;21048;-73
2023/10/31 07:19:55;;;;;;;0.70;0.70;;;9.60;99.90;;;;;;5081087;28;21221;-72
2023/10/31 07:22:24;;;;;;;0.67;0.60;;;9.70;99.90;;;;;;5085843;28;21046;-73
2023/10/31 07:24:51;;;;;;;1.50;0.70;;;9.60;99.90;;;;;;5088650;28;20690;-72
2023/10/31 07:27:20;;;;;;;1.87;0.80;;;9.60;99.90;;;;;;5087006;28;20627;-72
2023/10/31 07:29:49;;;;;;;0.67;0.67;;;9.60;99.90;;;;;;5087924;28;20628;-74
2023/10/31 07:32:18;;;;;;;0.87;0.50;;;9.60;99.90;;;;;;5087162;28;21117;-74
2023/10/31 07:34:50;;;;;;;0.73;0.73;;;9.60;99.90;;;;;;5086724;28;20660;-75
2023/10/31 07:37:38;;;;;;;3.00;0.93;;;9.60;99.90;;;;;;5086595;28;20712;-75
2023/10/31 07:40:15;;;;;;;1.40;0.70;;;9.70;99.90;;;;;;5088852;28;20633;-73
2023/10/31 07:42:42;;;;;;;0.50;0.50;;;9.80;99.90;;;;;;5087268;28;20678;-73
2023/10/31 07:45:13;;;;;;;0.63;0.50;;;9.80;99.90;;;;;;5086290;28;21181;-71
2023/10/31 07:47:40;;;;;;;0.90;0.60;;;9.80;99.90;;;;;;5083923;28;20685;-73
2023/10/31 07:50:07;;;;;;;1.10;1.00;;;9.80;99.90;;;;;;5085584;28;20767;-73
2023/10/31 07:52:34;;;;;;;0.83;0.73;;;9.80;99.90;;;;;;5089236;28;20194;-74
2023/10/31 07:55:01;;;;;;;0.60;0.60;;;9.90;99.90;;;;;;5086349;28;20663;-73
2023/10/31 07:57:27;;;;;;;0.80;0.70;;;9.90;99.90;;;;;;5087643;28;20631;-73
2023/10/31 07:59:54;;;;;;;1.57;0.70;;;10.00;99.90;;;;;;5083522;28;20640;-73
2023/10/31 08:02:22;;;;;;;0.40;0.40;;;10.10;99.90;;;;;;5088766;28;20625;-74
2023/10/31 08:04:49;;;;;;;1.00;0.90;;;10.10;99.90;;;;;;5084200;28;20633;-73
2023/10/31 08:07:16;;;;;;;1.63;0.90;;;10.10;99.90;;;;;;5083332;28;20629;-74
2023/10/31 08:09:43;;;;;;;0.80;0.80;;;10.20;99.90;;;;;;5087131;28;21022;-75
2023/10/31 08:12:10;;;;;;;0.53;0.53;;;10.30;99.90;;;;;;5092278;28;21221;-73
2023/10/31 08:14:36;;;;;;;0.70;0.70;;;10.30;99.90;;;;;;5076211;28;20648;-73
2023/10/31 08:17:03;;;;;;;0.83;0.50;;;10.30;99.90;;;;;;5086568;28;20751;-73
2023/10/31 08:19:31;;;;;;;1.23;0.73;;;10.20;99.90;;;;;;5081476;28;20625;-73
2023/10/31 08:21:58;;;;;;;2.60;1.23;;;10.20;99.90;;;;;;5088251;28;20744;-73
2023/10/31 08:24:28;;;;;;;0.60;0.60;;;10.30;99.90;;;;;;5087612;28;20630;-73
2023/10/31 08:26:55;;;;;;;0.83;0.67;;;10.40;99.90;;;;;;5089393;28;20624;-73
2023/10/31 08:29:22;;;;;;;0.47;0.47;;;10.40;99.90;;;;;;5095012;28;20666;-74
2023/10/31 08:31:49;;;;;;;0.90;0.70;;;10.50;99.90;;;;;;5090738;28;20621;-73
2023/10/31 08:34:15;;;;;;;0.70;0.70;;;10.60;99.90;;;;;;5083135;28;20753;-74
2023/10/31 08:36:44;;;;;;;0.63;0.40;;;10.60;99.90;;;;;;5087173;28;20628;-74
2023/10/31 08:39:10;;;;;;;0.60;0.60;;;10.80;99.90;;;;;;5087050;28;20628;-74
2023/10/31 08:41:39;;;;;;;0.80;0.53;;;10.80;99.90;;;;;;5092194;28;20625;-75
2023/10/31 08:44:07;;;;;;;1.70;0.50;;;10.80;99.90;;;;;;5093301;28;20631;-75
2023/10/31 08:46:34;;;;;;;0.80;0.73;;;10.80;99.90;;;;;;5097307;28;20709;-75
2023/10/31 08:49:00;;;;;;;0.70;0.70;;;10.90;99.90;;;;;;5087653;28;20664;-74
2023/10/31 08:51:27;;;;;;;0.50;0.50;;;11.00;99.90;;;;;;5085916;28;20639;-74
2023/10/31 08:53:55;;;;;;;1.90;0.77;;;11.00;99.90;;;;;;5091848;28;20621;-74
2023/10/31 08:56:22;;;;;;;0.90;0.70;;;10.90;99.90;;;;;;5084861;28;20635;-73
2023/10/31 08:58:49;;;;;;;2.43;1.20;;;11.00;99.90;;;;;;5083826;28;20715;-74
2023/10/31 09:01:16;;;;;;;0.90;0.90;;;11.00;99.90;;;;;;5085554;28;20765;-74
2023/10/31 09:03:42;;;;;;;0.90;0.67;;;11.20;99.90;;;;;;5092776;28;20629;-74
2023/10/31 09:06:09;;;;;;;0.73;0.70;;;11.10;99.90;;;;;;5084608;28;20633;-74
2023/10/31 09:08:36;;;;;;;1.60;0.97;;;11.10;99.90;;;;;;5088062;28;20717;-75
2023/10/31 09:11:05;;;;;;;0.60;0.50;;;11.10;99.90;;;;;;5090354;28;20634;-75
2023/10/31 09:13:32;;;;;;;0.60;0.50;;;11.20;99.90;;;;;;5089150;28;20629;-75
2023/10/31 09:16:00;;;;;;;1.87;0.60;;;11.20;99.90;;;;;;5076150;28;20626;-74
2023/10/31 09:18:26;;;;;;;0.50;0.50;;;11.30;99.90;;;;;;5083346;28;21195;-74
2023/10/31 09:20:53;;;;;;;0.63;0.50;;;11.40;99.90;;;;;;5084793;28;20617;-74
2023/10/31 09:23:20;;;;;;;1.90;0.50;;;11.40;99.90;;;;;;5090442;28;20633;-74
2023/10/31 09:25:48;;;;;;;0.80;0.63;;;11.30;99.90;;;;;;5078555;28;20740;-74
2023/10/31 09:28:19;;;;;;;2.00;0.77;;;11.50;99.90;;;;;;5071494;28;21236;-74
2023/10/31 09:30:46;;;;;;;0.73;0.73;;;11.70;99.90;;;;;;5086511;28;20774;-74
2023/10/31 09:33:13;;;;;;;1.90;0.67;;;11.80;99.90;;;;;;5087918;28;20876;-74
2023/10/31 09:35:40;;;;;;;1.53;0.80;;;11.70;99.90;;;;;;5082224;28;20724;-75
2023/10/31 09:38:07;;;;;;;0.50;0.43;;;11.60;99.90;;;;;;5080975;28;20637;-75
2023/10/31 09:40:34;;;;;;;0.60;0.60;;;11.50;99.90;;;;;;5080614;28;20623;-75
2023/10/31 09:43:00;;;;;;;0.60;0.57;;;11.50;99.90;;;;;;5089880;28;20628;-75
2023/10/31 09:45:29;;;;;;;0.50;0.50;;;11.30;99.90;;;;;;5080431;28;20657;-75
2023/10/31 09:47:58;;;;;;;1.03;0.70;;;11.30;99.90;;;;;;5083914;28;20682;-75
2023/10/31 09:50:25;;;;;;;0.40;0.40;;;11.50;99.90;;;;;;5084748;28;20808;-75
2023/10/31 09:52:53;;;;;;;0.97;0.60;;;11.50;99.90;;;;;;5088111;28;20630;-75
2023/10/31 09:55:20;;;;;;;0.80;0.80;;;11.60;99.90;;;;;;5087278;28;20632;-75
2023/10/31 09:57:47;;;;;;;0.53;0.50;;;11.50;99.90;;;;;;5085018;28;20627;-75
2023/10/31 10:00:14;;;;;;;1.83;0.83;;;11.50;99.90;;;;;;5086965;28;20663;-75
2023/10/31 10:02:43;;;;;;;0.70;0.70;;;11.70;99.90;;;;;;5081448;28;21233;-75
2023/10/31 10:05:11;;;;;;;1.80;0.67;;;11.70;99.90;;;;;;5088322;28;20629;-75
2023/10/31 10:07:43;;;;;;;0.57;0.57;;;11.80;99.90;;;;;;5087807;28;20735;-75
2023/10/31 10:10:11;;;;;;;0.67;0.67;;;11.50;99.90;;;;;;5082127;28;20660;-75
2023/10/31 10:12:38;;;;;;;0.70;0.50;;;11.50;99.90;;;;;;5086095;28;20624;-75
2023/10/31 10:15:05;;;;;;;1.10;0.73;;;11.50;99.90;;;;;;5084046;28;20636;-75
2023/10/31 10:17:33;;;;;;;0.60;0.60;;;11.70;99.90;;;;;;5077311;28;20617;-75
2023/10/31 10:20:09;;;;;;;0.70;0.70;;;11.50;99.90;;;;;;5084782;28;20625;-74
2023/10/31 10:22:38;;;;;;;1.30;0.90;;;11.50;99.90;;;;;;5089706;28;20620;-74
2023/10/31 10:25:07;;;;;;;1.07;0.80;;;11.60;99.90;;;;;;5091478;28;21075;-74
2023/10/31 10:27:33;;;;;;;0.43;0.43;;;11.70;99.90;;;;;;5084686;28;20647;-74
2023/10/31 10:30:00;;;;;;;1.43;0.97;;;11.70;99.90;;;;;;5092335;28;20985;-74
2023/10/31 10:32:27;;;;;;;0.70;0.67;;;11.70;99.90;;;;;;5090893;28;21191;-73
2023/10/31 10:34:55;;;;;;;0.90;0.80;;;11.70;99.90;;;;;;5088787;28;20627;-74
2023/10/31 10:37:23;;;;;;;1.37;0.80;;;11.80;99.90;;;;;;5087454;28;20625;-75
2023/10/31 10:39:55;;;;;;;0.87;0.87;;;11.70;99.90;;;;;;5080996;28;20624;-74
2023/10/31 10:42:29;;;;;;;0.60;0.60;;;11.70;99.90;;;;;;5083505;28;21192;-74
2023/10/31 10:44:59;;;;;;;0.93;0.57;;;11.80;99.90;;;;;;5085253;28;20980;-74
2023/10/31 10:47:26;;;;;;;2.80;1.00;;;11.70;99.90;;;;;;5087103;28;20636;-74
2023/10/31 10:49:59;;;;;;;0.70;0.70;;;11.60;99.90;;;;;;5095530;28;20659;-74
2023/10/31 10:52:35;;;;;;;0.80;0.80;;;11.70;99.90;;;;;;5089886;28;21183;-74
2023/10/31 10:55:07;;;;;;;1.90;0.80;;;11.70;99.90;;;;;;5095520;28;20620;-73
2023/10/31 10:57:39;;;;;;;1.23;0.77;;;11.60;99.90;;;;;;5080692;28;20744;-74
2023/10/31 11:00:08;;;;;;;2.33;0.87;;;11.60;99.90;;;;;;5098028;28;20727;-75
2023/10/31 11:02:36;;;;;;;0.93;0.77;;;11.60;99.90;;;;;;5090821;28;20708;-73
2023/10/31 11:05:06;;;;;;;0.63;0.63;;;11.60;99.90;;;;;;5087850;28;20702;-73
2023/10/31 11:07:35;;;;;;;1.00;0.90;;;11.60;99.90;;;;;;5087724;28;20621;-73
2023/10/31 11:10:04;;;;;;;0.60;0.60;;;11.60;99.90;;;;;;5088395;28;20676;-73
2023/10/31 11:12:32;;;;;;;2.30;1.00;;;11.60;99.90;;;;;;5094668;28;20667;-72
2023/10/31 11:15:00;;;;;;;0.73;0.73;;;11.60;99.90;;;;;;5092571;28;20636;-72
2023/10/31 11:17:30;;;;;;;0.73;0.73;;;11.60;99.90;;;;;;5087942;28;20633;-72
2023/10/31 11:19:58;;;;;;;1.47;0.70;;;11.70;99.90;;;;;;5089981;28;20668;-73
2023/10/31 11:22:25;;;;;;;1.13;0.90;;;11.80;99.90;;;;;;5089035;28;20664;-74
2023/10/31 11:24:53;;;;;;;3.67;1.33;;;11.80;99.90;;;;;;5089159;28;21165;-72
2023/10/31 11:27:20;;;;;;;1.27;0.70;;;11.80;99.90;;;;;;5086775;28;21003;-72
2023/10/31 11:29:48;;;;;;;1.00;0.80;;;11.80;99.90;;;;;;5088758;28;20665;-73
2023/10/31 11:32:15;;;;;;;0.83;0.63;;;11.70;99.90;;;;;;5087621;28;20630;-73
2023/10/31 11:34:43;;;;;;;1.70;0.93;;;11.70;99.90;;;;;;5086591;28;20621;-73
2023/10/31 11:37:27;;;;;;;2.80;1.40;;;11.90;99.90;;;;;;5087562;28;20706;-73
2023/10/31 11:40:17;;;;;;;2.33;0.90;;;12.00;99.90;;;;;;5087101;28;20625;-73
2023/10/31 11:42:44;;;;;;;2.30;0.53;;;12.30;99.90;;;;;;5090267;28;20628;-74
2023/10/31 11:45:12;;;;;;;0.90;0.90;;;12.30;99.90;;;;;;5092293;28;20758;-72
2023/10/31 11:47:48;;;;;;;1.03;0.67;;;12.40;99.90;;;;;;5088620;28;20711;-74
2023/10/31 11:50:15;;;;;;;0.40;0.40;;;12.50;99.90;;;;;;5090843;28;21044;-75
2023/10/31 11:52:42;;;;;;;0.70;0.67;;;12.70;99.90;;;;;;5083286;28;20698;-75
2023/10/31 11:55:11;;;;;;;1.23;0.60;;;12.70;99.90;;;;;;5087198;28;20675;-74
2023/10/31 11:57:39;;;;;;;0.50;0.40;;;12.70;99.90;;;;;;5099396;28;20619;-72
2023/10/31 12:00:09;;;;;;;0.60;0.30;;;12.60;99.90;;;;;;5093588;28;20992;-73
2023/10/31 12:02:35;;;;;;;0.57;0.57;;;12.50;99.90;;;;;;5088754;28;21025;-72
2023/10/31 12:05:08;;;;;;;0.57;0.57;;;12.50;99.90;;;;;;5090372;28;20628;-73
2023/10/31 12:07:43;;;;;;;0.63;0.50;;;12.40;99.90;;;;;;5087085;28;20617;-73
2023/10/31 12:10:10;;;;;;;0.60;0.50;;;12.30;99.90;;;;;;5098705;28;20685;-73
2023/10/31 12:12:37;;;;;;;0.50;0.50;;;12.20;99.90;;;;;;5087919;28;20747;-73
2023/10/31 12:15:08;;;;;;;1.80;0.63;;;12.30;99.90;;;;;;5096849;28;20633;-73
2023/10/31 12:17:35;;;;;;;0.70;0.70;;;12.30;99.90;;;;;;5080947;28;20636;-73
2023/10/31 12:20:05;;;;;;;0.50;0.40;;;12.30;99.90;;;;;;5086451;28;21083;-72
2023/10/31 12:22:33;;;;;;;0.50;0.43;;;12.40;99.90;;;;;;5087496;28;20740;-73
2023/10/31 12:25:03;;;;;;;0.83;0.53;;;12.30;99.90;;;;;;5089038;28;21191;-72
2023/10/31 12:27:44;;;;;;;0.80;0.80;;;12.30;99.90;;;;;;5090034;28;20739;-73
2023/10/31 12:30:13;;;;;;;0.53;0.53;;;12.50;99.90;;;;;;5090228;28;20661;-73
2023/10/31 12:32:42;;;;;;;1.70;1.40;;;12.60;99.90;;;;;;5090271;28;21627;-73
2023/10/31 12:35:15;;;;;;;1.00;0.90;;;12.50;99.90;;;;;;5092511;28;20636;-73
2023/10/31 12:37:44;;;;;;;1.13;0.97;;;12.50;99.90;;;;;;5086206;28;21184;-73
2023/10/31 12:40:12;;;;;;;3.10;2.10;;;12.40;99.90;;;;;;5087492;28;20992;-73
2023/10/31 12:42:39;;;;;;;1.50;1.40;;;12.40;99.90;;;;;;5093706;28;20627;-73
2023/10/31 12:45:08;;;;;;;0.50;0.40;;;12.40;99.90;;;;;;5094623;28;21037;-73
2023/10/31 12:47:36;;;;;;;0.40;0.30;;;12.30;99.90;;;;;;5090298;28;20628;-73
2023/10/31 12:50:08;;;;;;;1.40;0.40;;;12.20;99.90;;;;;;5084717;28;20679;-72
2023/10/31 12:52:51;;;;;;;0.40;0.30;;;12.00;99.90;;;;;;5086850;28;20990;-73
2023/10/31 12:55:20;;;;;;;0.30;0.30;;;12.10;99.90;;;;;;5084833;28;20632;-73
2023/10/31 12:57:47;;;;;;;0.50;0.27;;;12.10;99.90;;;;;;5085697;28;20717;-73